sensor_id;sensor_type;location;lat;lon;timestamp;P1;durP1;ratioP1;P2;durP2;ratioP2
4754;SDS011;2391;47.212;7.542;2024-01-27T00:00:06;1.17;;;0.80;;
4754;SDS011;2391;47.212;7.542;2024-01-27T00:02:33;0.70;;;0.70;;
4754;SDS011;2391;47.212;7.542;2024-01-27T00:04:59;0.70;;;0.70;;
4754;SDS011;2391;47.212;7.542;2024-01-27T00:07:25;0.90;;;0.70;;
4754;SDS011;2391;47.212;7.542;2024-01-27T00:09:52;1.17;;;1.10;;
4754;SDS011;2391;47.212;7.542;2024-01-27T00:12:18;1.80;;;1.70;;
4754;SDS011;2391;47.212;7.542;2024-01-27T00:14:44;1.70;;;1.30;;
4754;SDS011;2391;47.212;7.542;2024-01-27T00:17:09;1.57;;;1.40;;
4754;SDS011;2391;47.212;7.542;2024-01-27T00:19:35;1.40;;;1.30;;
4754;SDS011;2391;47.212;7.542;2024-01-27T00:22:01;1.60;;;1.50;;
4754;SDS011;2391;47.212;7.542;2024-01-27T00:24:27;1.00;;;1.00;;
4754;SDS011;2391;47.212;7.542;2024-01-27T00:26:53;1.60;;;1.23;;
4754;SDS011;2391;47.212;7.542;2024-01-27T00:29:19;1.10;;;1.00;;
4754;SDS011;2391;47.212;7.542;2024-01-27T00:31:46;1.20;;;1.10;;
4754;SDS011;2391;47.212;7.542;2024-01-27T00:34:11;2.40;;;1.20;;
4754;SDS011;2391;47.212;7.542;2024-01-27T00:36:37;0.93;;;0.93;;
4754;SDS011;2391;47.212;7.542;2024-01-27T00:39:03;1.07;;;1.07;;
4754;SDS011;2391;47.212;7.542;2024-01-27T00:41:30;1.23;;;1.13;;
4754;SDS011;2391;47.212;7.542;2024-01-27T00:43:55;4.70;;;1.03;;
4754;SDS011;2391;47.212;7.542;2024-01-27T00:46:21;1.10;;;1.10;;
4754;SDS011;2391;47.212;7.542;2024-01-27T00:48:47;1.10;;;1.10;;
4754;SDS011;2391;47.212;7.542;2024-01-27T00:51:13;1.43;;;1.30;;
4754;SDS011;2391;47.212;7.542;2024-01-27T00:53:39;1.40;;;1.30;;
4754;SDS011;2391;47.212;7.542;2024-01-27T00:56:06;1.03;;;0.97;;
4754;SDS011;2391;47.212;7.542;2024-01-27T00:58:32;2.80;;;1.40;;
4754;SDS011;2391;47.212;7.542;2024-01-27T01:00:57;1.90;;;1.80;;
4754;SDS011;2391;47.212;7.542;2024-01-27T01:03:24;1.60;;;1.50;;
4754;SDS011;2391;47.212;7.542;2024-01-27T01:05:49;1.70;;;1.60;;
4754;SDS011;2391;47.212;7.542;2024-01-27T01:08:15;2.43;;;2.00;;
4754;SDS011;2391;47.212;7.542;2024-01-27T01:10:41;2.57;;;2.37;;
4754;SDS011;2391;47.212;7.542;2024-01-27T01:13:07;2.47;;;2.27;;
4754;SDS011;2391;47.212;7.542;2024-01-27T01:15:33;6.00;;;2.60;;
4754;SDS011;2391;47.212;7.542;2024-01-27T01:17:58;2.70;;;2.50;;
4754;SDS011;2391;47.212;7.542;2024-01-27T01:20:24;1.93;;;1.83;;
4754;SDS011;2391;47.212;7.542;2024-01-27T01:22:52;1.90;;;1.80;;
4754;SDS011;2391;47.212;7.542;2024-01-27T01:25:18;2.63;;;2.43;;
4754;SDS011;2391;47.212;7.542;2024-01-27T01:27:45;2.00;;;1.83;;
4754;SDS011;2391;47.212;7.542;2024-01-27T01:30:11;2.37;;;2.17;;
4754;SDS011;2391;47.212;7.542;2024-01-27T01:32:38;1.97;;;1.87;;
4754;SDS011;2391;47.212;7.542;2024-01-27T01:35:04;2.20;;;1.67;;
4754;SDS011;2391;47.212;7.542;2024-01-27T01:37:31;1.80;;;1.70;;
4754;SDS011;2391;47.212;7.542;2024-01-27T01:39:56;1.93;;;1.83;;
4754;SDS011;2391;47.212;7.542;2024-01-27T01:42:22;1.73;;;1.63;;
4754;SDS011;2391;47.212;7.542;2024-01-27T01:44:53;6.30;;;1.97;;
4754;SDS011;2391;47.212;7.542;2024-01-27T01:47:19;2.87;;;2.17;;
4754;SDS011;2391;47.212;7.542;2024-01-27T01:49:45;9.80;;;2.07;;
4754;SDS011;2391;47.212;7.542;2024-01-27T01:52:10;2.50;;;2.03;;
4754;SDS011;2391;47.212;7.542;2024-01-27T01:54:37;2.40;;;1.80;;
4754;SDS011;2391;47.212;7.542;2024-01-27T01:57:03;2.13;;;2.03;;
4754;SDS011;2391;47.212;7.542;2024-01-27T01:59:32;1.80;;;1.70;;
4754;SDS011;2391;47.212;7.542;2024-01-27T02:01:58;1.90;;;1.80;;
4754;SDS011;2391;47.212;7.542;2024-01-27T02:04:25;1.73;;;1.63;;
4754;SDS011;2391;47.212;7.542;2024-01-27T02:06:51;2.10;;;1.90;;
4754;SDS011;2391;47.212;7.542;2024-01-27T02:09:17;1.70;;;1.60;;
4754;SDS011;2391;47.212;7.542;2024-01-27T02:11:42;1.83;;;1.73;;
4754;SDS011;2391;47.212;7.542;2024-01-27T02:14:08;2.13;;;2.03;;
4754;SDS011;2391;47.212;7.542;2024-01-27T02:16:34;1.87;;;1.77;;
4754;SDS011;2391;47.212;7.542;2024-01-27T02:19:00;1.80;;;1.63;;
4754;SDS011;2391;47.212;7.542;2024-01-27T02:21:26;1.70;;;1.60;;
4754;SDS011;2391;47.212;7.542;2024-01-27T02:23:51;5.20;;;1.30;;
4754;SDS011;2391;47.212;7.542;2024-01-27T02:26:17;1.30;;;1.20;;
4754;SDS011;2391;47.212;7.542;2024-01-27T02:28:43;1.33;;;1.27;;
4754;SDS011;2391;47.212;7.542;2024-01-27T02:31:09;1.27;;;1.17;;
4754;SDS011;2391;47.212;7.542;2024-01-27T02:33:34;0.80;;;0.80;;
4754;SDS011;2391;47.212;7.542;2024-01-27T02:36:00;1.07;;;0.97;;
4754;SDS011;2391;47.212;7.542;2024-01-27T02:38:26;0.90;;;0.90;;
4754;SDS011;2391;47.212;7.542;2024-01-27T02:40:51;0.80;;;0.80;;
4754;SDS011;2391;47.212;7.542;2024-01-27T02:43:17;1.23;;;0.80;;
4754;SDS011;2391;47.212;7.542;2024-01-27T02:45:43;1.23;;;0.70;;
4754;SDS011;2391;47.212;7.542;2024-01-27T02:48:09;0.90;;;0.90;;
4754;SDS011;2391;47.212;7.542;2024-01-27T02:50:35;0.90;;;0.90;;
4754;SDS011;2391;47.212;7.542;2024-01-27T02:53:00;0.90;;;0.90;;
4754;SDS011;2391;47.212;7.542;2024-01-27T02:55:26;3.43;;;0.90;;
4754;SDS011;2391;47.212;7.542;2024-01-27T02:57:52;0.93;;;0.90;;
4754;SDS011;2391;47.212;7.542;2024-01-27T03:00:18;0.90;;;0.90;;
4754;SDS011;2391;47.212;7.542;2024-01-27T03:02:44;1.80;;;1.20;;
4754;SDS011;2391;47.212;7.542;2024-01-27T03:05:10;0.80;;;0.80;;
4754;SDS011;2391;47.212;7.542;2024-01-27T03:07:37;0.90;;;0.90;;
4754;SDS011;2391;47.212;7.542;2024-01-27T03:10:03;1.10;;;1.00;;
4754;SDS011;2391;47.212;7.542;2024-01-27T03:12:30;0.80;;;0.80;;
4754;SDS011;2391;47.212;7.542;2024-01-27T03:14:55;0.60;;;0.60;;
4754;SDS011;2391;47.212;7.542;2024-01-27T03:17:21;0.77;;;0.77;;
4754;SDS011;2391;47.212;7.542;2024-01-27T03:19:47;1.00;;;1.00;;
4754;SDS011;2391;47.212;7.542;2024-01-27T03:22:13;1.30;;;0.90;;
4754;SDS011;2391;47.212;7.542;2024-01-27T03:24:38;0.90;;;0.90;;
4754;SDS011;2391;47.212;7.542;2024-01-27T03:27:04;1.20;;;1.10;;
4754;SDS011;2391;47.212;7.542;2024-01-27T03:29:30;1.10;;;1.00;;
4754;SDS011;2391;47.212;7.542;2024-01-27T03:31:56;0.80;;;0.80;;
4754;SDS011;2391;47.212;7.542;2024-01-27T03:34:21;1.63;;;1.53;;
4754;SDS011;2391;47.212;7.542;2024-01-27T03:36:49;0.80;;;0.80;;
4754;SDS011;2391;47.212;7.542;2024-01-27T03:39:15;1.10;;;1.00;;
4754;SDS011;2391;47.212;7.542;2024-01-27T03:41:40;1.03;;;1.03;;
4754;SDS011;2391;47.212;7.542;2024-01-27T03:44:08;0.90;;;0.90;;
4754;SDS011;2391;47.212;7.542;2024-01-27T03:46:34;1.77;;;0.90;;
4754;SDS011;2391;47.212;7.542;2024-01-27T03:49:00;0.80;;;0.80;;
4754;SDS011;2391;47.212;7.542;2024-01-27T03:51:26;0.83;;;0.77;;
4754;SDS011;2391;47.212;7.542;2024-01-27T03:53:52;0.90;;;0.90;;
4754;SDS011;2391;47.212;7.542;2024-01-27T03:56:17;1.30;;;1.20;;
4754;SDS011;2391;47.212;7.542;2024-01-27T03:58:43;0.90;;;0.90;;
4754;SDS011;2391;47.212;7.542;2024-01-27T04:01:09;0.60;;;0.60;;
4754;SDS011;2391;47.212;7.542;2024-01-27T04:03:35;0.80;;;0.80;;
4754;SDS011;2391;47.212;7.542;2024-01-27T04:06:00;1.03;;;0.80;;
4754;SDS011;2391;47.212;7.542;2024-01-27T04:08:29;1.30;;;1.30;;
4754;SDS011;2391;47.212;7.542;2024-01-27T04:11:00;0.87;;;0.70;;
4754;SDS011;2391;47.212;7.542;2024-01-27T04:13:23;1.43;;;1.27;;
4754;SDS011;2391;47.212;7.542;2024-01-27T04:15:49;0.67;;;0.67;;
4754;SDS011;2391;47.212;7.542;2024-01-27T04:18:16;0.77;;;0.77;;
4754;SDS011;2391;47.212;7.542;2024-01-27T04:20:42;1.20;;;1.10;;
4754;SDS011;2391;47.212;7.542;2024-01-27T04:23:09;1.70;;;0.80;;
4754;SDS011;2391;47.212;7.542;2024-01-27T04:25:34;1.70;;;0.90;;
4754;SDS011;2391;47.212;7.542;2024-01-27T04:28:00;0.90;;;0.90;;
4754;SDS011;2391;47.212;7.542;2024-01-27T04:30:26;2.13;;;0.90;;
4754;SDS011;2391;47.212;7.542;2024-01-27T04:32:52;5.17;;;0.80;;
4754;SDS011;2391;47.212;7.542;2024-01-27T04:35:17;0.87;;;0.87;;
4754;SDS011;2391;47.212;7.542;2024-01-27T04:37:44;2.03;;;1.10;;
4754;SDS011;2391;47.212;7.542;2024-01-27T04:40:10;2.93;;;1.03;;
4754;SDS011;2391;47.212;7.542;2024-01-27T04:42:37;2.17;;;0.93;;
4754;SDS011;2391;47.212;7.542;2024-01-27T04:45:04;1.83;;;1.17;;
4754;SDS011;2391;47.212;7.542;2024-01-27T04:47:31;2.93;;;0.80;;
4754;SDS011;2391;47.212;7.542;2024-01-27T04:49:56;3.73;;;2.40;;
4754;SDS011;2391;47.212;7.542;2024-01-27T04:52:25;0.90;;;0.90;;
4754;SDS011;2391;47.212;7.542;2024-01-27T04:54:51;1.60;;;1.00;;
4754;SDS011;2391;47.212;7.542;2024-01-27T04:57:17;2.10;;;1.17;;
4754;SDS011;2391;47.212;7.542;2024-01-27T04:59:42;2.23;;;1.00;;
4754;SDS011;2391;47.212;7.542;2024-01-27T05:02:08;0.90;;;0.90;;
4754;SDS011;2391;47.212;7.542;2024-01-27T05:04:34;2.30;;;1.13;;
4754;SDS011;2391;47.212;7.542;2024-01-27T05:07:00;2.00;;;1.33;;
4754;SDS011;2391;47.212;7.542;2024-01-27T05:09:25;2.53;;;1.50;;
4754;SDS011;2391;47.212;7.542;2024-01-27T05:11:51;1.27;;;1.17;;
4754;SDS011;2391;47.212;7.542;2024-01-27T05:14:18;3.43;;;1.20;;
4754;SDS011;2391;47.212;7.542;2024-01-27T05:16:44;1.20;;;1.10;;
4754;SDS011;2391;47.212;7.542;2024-01-27T05:19:10;2.50;;;1.20;;
4754;SDS011;2391;47.212;7.542;2024-01-27T05:21:37;1.73;;;1.33;;
4754;SDS011;2391;47.212;7.542;2024-01-27T05:24:03;8.43;;;1.20;;
4754;SDS011;2391;47.212;7.542;2024-01-27T05:26:29;3.43;;;1.20;;
4754;SDS011;2391;47.212;7.542;2024-01-27T05:28:55;2.40;;;1.30;;
4754;SDS011;2391;47.212;7.542;2024-01-27T05:31:21;1.30;;;1.20;;
4754;SDS011;2391;47.212;7.542;2024-01-27T05:33:47;1.10;;;1.10;;
4754;SDS011;2391;47.212;7.542;2024-01-27T05:36:13;3.37;;;1.40;;
4754;SDS011;2391;47.212;7.542;2024-01-27T05:38:39;1.20;;;1.10;;
4754;SDS011;2391;47.212;7.542;2024-01-27T05:41:04;4.33;;;1.63;;
4754;SDS011;2391;47.212;7.542;2024-01-27T05:43:30;4.03;;;1.13;;
4754;SDS011;2391;47.212;7.542;2024-01-27T05:45:56;1.47;;;1.27;;
4754;SDS011;2391;47.212;7.542;2024-01-27T05:48:21;0.90;;;0.90;;
4754;SDS011;2391;47.212;7.542;2024-01-27T05:50:57;1.10;;;1.00;;
4754;SDS011;2391;47.212;7.542;2024-01-27T05:53:24;1.07;;;1.07;;
4754;SDS011;2391;47.212;7.542;2024-01-27T05:55:51;2.10;;;1.20;;
4754;SDS011;2391;47.212;7.542;2024-01-27T05:58:20;1.40;;;1.30;;
4754;SDS011;2391;47.212;7.542;2024-01-27T06:00:49;2.50;;;1.20;;
4754;SDS011;2391;47.212;7.542;2024-01-27T06:03:14;2.67;;;1.33;;
4754;SDS011;2391;47.212;7.542;2024-01-27T06:05:42;2.07;;;1.30;;
4754;SDS011;2391;47.212;7.542;2024-01-27T06:08:08;2.00;;;1.67;;
4754;SDS011;2391;47.212;7.542;2024-01-27T06:10:34;1.43;;;1.03;;
4754;SDS011;2391;47.212;7.542;2024-01-27T06:13:02;1.00;;;1.00;;
4754;SDS011;2391;47.212;7.542;2024-01-27T06:15:29;2.77;;;1.40;;
4754;SDS011;2391;47.212;7.542;2024-01-27T06:17:55;3.30;;;1.60;;
4754;SDS011;2391;47.212;7.542;2024-01-27T06:20:20;3.30;;;1.30;;
4754;SDS011;2391;47.212;7.542;2024-01-27T06:22:46;2.13;;;1.53;;
4754;SDS011;2391;47.212;7.542;2024-01-27T06:25:12;2.03;;;1.20;;
4754;SDS011;2391;47.212;7.542;2024-01-27T06:27:38;1.20;;;1.00;;
4754;SDS011;2391;47.212;7.542;2024-01-27T06:30:04;1.23;;;1.13;;
4754;SDS011;2391;47.212;7.542;2024-01-27T06:32:31;1.97;;;1.20;;
4754;SDS011;2391;47.212;7.542;2024-01-27T06:34:56;3.53;;;1.10;;
4754;SDS011;2391;47.212;7.542;2024-01-27T06:37:22;6.00;;;1.50;;
4754;SDS011;2391;47.212;7.542;2024-01-27T06:39:48;1.40;;;1.23;;
4754;SDS011;2391;47.212;7.542;2024-01-27T06:42:14;1.47;;;1.37;;
4754;SDS011;2391;47.212;7.542;2024-01-27T06:44:39;1.50;;;1.40;;
4754;SDS011;2391;47.212;7.542;2024-01-27T06:47:06;1.40;;;1.10;;
4754;SDS011;2391;47.212;7.542;2024-01-27T06:49:31;1.40;;;1.30;;
4754;SDS011;2391;47.212;7.542;2024-01-27T06:51:58;1.47;;;1.37;;
4754;SDS011;2391;47.212;7.542;2024-01-27T06:54:26;1.40;;;1.30;;
4754;SDS011;2391;47.212;7.542;2024-01-27T06:56:51;2.00;;;1.70;;
4754;SDS011;2391;47.212;7.542;2024-01-27T06:59:17;1.47;;;1.37;;
4754;SDS011;2391;47.212;7.542;2024-01-27T07:01:46;2.67;;;1.50;;
4754;SDS011;2391;47.212;7.542;2024-01-27T07:04:14;2.00;;;1.40;;
4754;SDS011;2391;47.212;7.542;2024-01-27T07:06:40;3.93;;;1.60;;
4754;SDS011;2391;47.212;7.542;2024-01-27T07:09:06;3.17;;;1.97;;
4754;SDS011;2391;47.212;7.542;2024-01-27T07:11:39;3.67;;;2.10;;
4754;SDS011;2391;47.212;7.542;2024-01-27T07:14:03;2.10;;;1.60;;
4754;SDS011;2391;47.212;7.542;2024-01-27T07:16:29;1.60;;;1.50;;
4754;SDS011;2391;47.212;7.542;2024-01-27T07:18:55;2.03;;;1.40;;
4754;SDS011;2391;47.212;7.542;2024-01-27T07:21:24;2.13;;;1.50;;
4754;SDS011;2391;47.212;7.542;2024-01-27T07:23:50;1.63;;;1.30;;
4754;SDS011;2391;47.212;7.542;2024-01-27T07:26:16;2.07;;;1.43;;
4754;SDS011;2391;47.212;7.542;2024-01-27T07:28:42;1.10;;;1.10;;
4754;SDS011;2391;47.212;7.542;2024-01-27T07:31:08;1.63;;;1.50;;
4754;SDS011;2391;47.212;7.542;2024-01-27T07:33:34;6.13;;;1.63;;
4754;SDS011;2391;47.212;7.542;2024-01-27T07:35:59;1.50;;;1.30;;
4754;SDS011;2391;47.212;7.542;2024-01-27T07:38:25;4.23;;;1.10;;
4754;SDS011;2391;47.212;7.542;2024-01-27T07:40:51;1.77;;;1.40;;
4754;SDS011;2391;47.212;7.542;2024-01-27T07:43:17;6.00;;;1.30;;
4754;SDS011;2391;47.212;7.542;2024-01-27T07:45:42;1.73;;;1.60;;
4754;SDS011;2391;47.212;7.542;2024-01-27T07:48:10;1.50;;;1.40;;
4754;SDS011;2391;47.212;7.542;2024-01-27T07:50:36;1.63;;;1.50;;
4754;SDS011;2391;47.212;7.542;2024-01-27T07:53:01;1.70;;;1.60;;
4754;SDS011;2391;47.212;7.542;2024-01-27T07:55:27;1.73;;;1.60;;
4754;SDS011;2391;47.212;7.542;2024-01-27T07:57:53;1.70;;;1.60;;
4754;SDS011;2391;47.212;7.542;2024-01-27T08:00:19;1.73;;;1.30;;
4754;SDS011;2391;47.212;7.542;2024-01-27T08:02:45;2.10;;;1.77;;
4754;SDS011;2391;47.212;7.542;2024-01-27T08:05:10;1.73;;;1.20;;
4754;SDS011;2391;47.212;7.542;2024-01-27T08:07:36;2.80;;;1.50;;
4754;SDS011;2391;47.212;7.542;2024-01-27T08:10:02;1.00;;;1.00;;
4754;SDS011;2391;47.212;7.542;2024-01-27T08:12:30;1.07;;;1.07;;
4754;SDS011;2391;47.212;7.542;2024-01-27T08:14:55;2.27;;;1.33;;
4754;SDS011;2391;47.212;7.542;2024-01-27T08:17:21;1.30;;;1.20;;
4754;SDS011;2391;47.212;7.542;2024-01-27T08:19:47;1.40;;;0.87;;
4754;SDS011;2391;47.212;7.542;2024-01-27T08:22:13;3.63;;;1.20;;
4754;SDS011;2391;47.212;7.542;2024-01-27T08:24:39;1.30;;;1.10;;
4754;SDS011;2391;47.212;7.542;2024-01-27T08:27:05;2.47;;;1.43;;
4754;SDS011;2391;47.212;7.542;2024-01-27T08:29:30;1.80;;;1.13;;
4754;SDS011;2391;47.212;7.542;2024-01-27T08:31:56;2.13;;;1.20;;
4754;SDS011;2391;47.212;7.542;2024-01-27T08:34:22;1.07;;;1.07;;
4754;SDS011;2391;47.212;7.542;2024-01-27T08:36:48;2.53;;;1.20;;
4754;SDS011;2391;47.212;7.542;2024-01-27T08:39:14;1.40;;;1.30;;
4754;SDS011;2391;47.212;7.542;2024-01-27T08:41:39;2.37;;;1.10;;
4754;SDS011;2391;47.212;7.542;2024-01-27T08:44:05;2.70;;;1.20;;
4754;SDS011;2391;47.212;7.542;2024-01-27T08:46:31;2.43;;;1.43;;
4754;SDS011;2391;47.212;7.542;2024-01-27T08:48:56;3.83;;;1.50;;
4754;SDS011;2391;47.212;7.542;2024-01-27T08:51:22;3.00;;;1.47;;
4754;SDS011;2391;47.212;7.542;2024-01-27T08:53:48;3.07;;;2.20;;
4754;SDS011;2391;47.212;7.542;2024-01-27T08:56:16;1.83;;;1.30;;
4754;SDS011;2391;47.212;7.542;2024-01-27T08:58:46;3.07;;;2.40;;
4754;SDS011;2391;47.212;7.542;2024-01-27T09:01:18;1.63;;;1.33;;
4754;SDS011;2391;47.212;7.542;2024-01-27T09:03:44;2.20;;;1.33;;
4754;SDS011;2391;47.212;7.542;2024-01-27T09:06:10;1.50;;;1.40;;
4754;SDS011;2391;47.212;7.542;2024-01-27T09:08:36;2.20;;;1.80;;
4754;SDS011;2391;47.212;7.542;2024-01-27T09:11:02;2.97;;;1.30;;
4754;SDS011;2391;47.212;7.542;2024-01-27T09:13:28;2.50;;;1.20;;
4754;SDS011;2391;47.212;7.542;2024-01-27T09:15:54;1.40;;;1.30;;
4754;SDS011;2391;47.212;7.542;2024-01-27T09:18:22;3.40;;;1.17;;
4754;SDS011;2391;47.212;7.542;2024-01-27T09:20:48;2.03;;;1.13;;
4754;SDS011;2391;47.212;7.542;2024-01-27T09:23:13;6.13;;;1.10;;
4754;SDS011;2391;47.212;7.542;2024-01-27T09:25:39;7.50;;;1.77;;
4754;SDS011;2391;47.212;7.542;2024-01-27T09:28:05;3.10;;;1.40;;
4754;SDS011;2391;47.212;7.542;2024-01-27T09:30:31;2.00;;;1.07;;
4754;SDS011;2391;47.212;7.542;2024-01-27T09:32:57;5.57;;;1.27;;
4754;SDS011;2391;47.212;7.542;2024-01-27T09:35:25;2.17;;;1.47;;
4754;SDS011;2391;47.212;7.542;2024-01-27T09:37:50;0.90;;;0.90;;
4754;SDS011;2391;47.212;7.542;2024-01-27T09:40:16;2.60;;;1.00;;
4754;SDS011;2391;47.212;7.542;2024-01-27T09:42:43;1.30;;;1.20;;
4754;SDS011;2391;47.212;7.542;2024-01-27T09:45:11;8.33;;;1.30;;
4754;SDS011;2391;47.212;7.542;2024-01-27T09:47:37;2.07;;;1.10;;
4754;SDS011;2391;47.212;7.542;2024-01-27T09:50:05;1.43;;;0.87;;
4754;SDS011;2391;47.212;7.542;2024-01-27T09:52:35;2.13;;;1.10;;
4754;SDS011;2391;47.212;7.542;2024-01-27T09:55:00;3.37;;;1.07;;
4754;SDS011;2391;47.212;7.542;2024-01-27T09:57:26;2.77;;;1.30;;
4754;SDS011;2391;47.212;7.542;2024-01-27T09:59:53;1.87;;;1.30;;
4754;SDS011;2391;47.212;7.542;2024-01-27T10:02:19;4.23;;;1.10;;
4754;SDS011;2391;47.212;7.542;2024-01-27T10:04:47;2.73;;;1.10;;
4754;SDS011;2391;47.212;7.542;2024-01-27T10:07:14;3.30;;;1.30;;
4754;SDS011;2391;47.212;7.542;2024-01-27T10:09:39;3.53;;;1.00;;
4754;SDS011;2391;47.212;7.542;2024-01-27T10:12:07;1.10;;;0.97;;
4754;SDS011;2391;47.212;7.542;2024-01-27T10:14:42;2.87;;;1.10;;
4754;SDS011;2391;47.212;7.542;2024-01-27T10:17:08;1.10;;;1.00;;
4754;SDS011;2391;47.212;7.542;2024-01-27T10:19:37;4.87;;;1.30;;
4754;SDS011;2391;47.212;7.542;2024-01-27T10:22:03;5.93;;;1.90;;
4754;SDS011;2391;47.212;7.542;2024-01-27T10:24:32;3.67;;;1.30;;
4754;SDS011;2391;47.212;7.542;2024-01-27T10:27:01;4.77;;;1.60;;
4754;SDS011;2391;47.212;7.542;2024-01-27T10:29:29;7.00;;;1.90;;
4754;SDS011;2391;47.212;7.542;2024-01-27T10:32:07;7.10;;;1.63;;
4754;SDS011;2391;47.212;7.542;2024-01-27T10:34:30;3.23;;;1.70;;
4754;SDS011;2391;47.212;7.542;2024-01-27T10:36:55;4.40;;;2.00;;
4754;SDS011;2391;47.212;7.542;2024-01-27T10:39:22;1.93;;;1.30;;
4754;SDS011;2391;47.212;7.542;2024-01-27T10:41:49;1.70;;;1.27;;
4754;SDS011;2391;47.212;7.542;2024-01-27T10:44:20;5.10;;;1.67;;
4754;SDS011;2391;47.212;7.542;2024-01-27T10:46:45;3.83;;;1.73;;
4754;SDS011;2391;47.212;7.542;2024-01-27T10:49:13;6.00;;;1.40;;
4754;SDS011;2391;47.212;7.542;2024-01-27T10:51:46;6.43;;;1.37;;
4754;SDS011;2391;47.212;7.542;2024-01-27T10:54:24;1.83;;;1.40;;
4754;SDS011;2391;47.212;7.542;2024-01-27T10:56:53;2.10;;;1.47;;
4754;SDS011;2391;47.212;7.542;2024-01-27T10:59:21;1.70;;;1.17;;
4754;SDS011;2391;47.212;7.542;2024-01-27T11:01:48;3.90;;;1.40;;
4754;SDS011;2391;47.212;7.542;2024-01-27T11:04:21;2.60;;;1.70;;
4754;SDS011;2391;47.212;7.542;2024-01-27T11:06:48;9.67;;;2.00;;
4754;SDS011;2391;47.212;7.542;2024-01-27T11:09:14;2.00;;;1.33;;
4754;SDS011;2391;47.212;7.542;2024-01-27T11:11:44;6.93;;;2.37;;
4754;SDS011;2391;47.212;7.542;2024-01-27T11:14:11;6.63;;;1.80;;
4754;SDS011;2391;47.212;7.542;2024-01-27T11:16:37;4.70;;;2.10;;
4754;SDS011;2391;47.212;7.542;2024-01-27T11:19:08;5.13;;;1.70;;
4754;SDS011;2391;47.212;7.542;2024-01-27T11:21:33;6.63;;;1.53;;
4754;SDS011;2391;47.212;7.542;2024-01-27T11:23:59;1.87;;;1.27;;
4754;SDS011;2391;47.212;7.542;2024-01-27T11:26:25;1.77;;;1.67;;
4754;SDS011;2391;47.212;7.542;2024-01-27T11:28:51;1.97;;;1.77;;
4754;SDS011;2391;47.212;7.542;2024-01-27T11:31:18;1.30;;;1.20;;
4754;SDS011;2391;47.212;7.542;2024-01-27T11:33:46;4.30;;;2.17;;
4754;SDS011;2391;47.212;7.542;2024-01-27T11:36:21;2.10;;;1.80;;
4754;SDS011;2391;47.212;7.542;2024-01-27T11:38:48;6.37;;;1.80;;
4754;SDS011;2391;47.212;7.542;2024-01-27T11:41:28;2.90;;;1.37;;
4754;SDS011;2391;47.212;7.542;2024-01-27T11:43:55;1.53;;;1.23;;
4754;SDS011;2391;47.212;7.542;2024-01-27T11:46:23;2.60;;;1.50;;
4754;SDS011;2391;47.212;7.542;2024-01-27T11:48:49;4.10;;;1.43;;
4754;SDS011;2391;47.212;7.542;2024-01-27T11:51:15;6.10;;;1.30;;
4754;SDS011;2391;47.212;7.542;2024-01-27T11:53:41;2.40;;;1.43;;
4754;SDS011;2391;47.212;7.542;2024-01-27T11:56:07;7.40;;;1.80;;
4754;SDS011;2391;47.212;7.542;2024-01-27T11:58:33;6.50;;;1.87;;
4754;SDS011;2391;47.212;7.542;2024-01-27T12:00:59;2.20;;;1.63;;
4754;SDS011;2391;47.212;7.542;2024-01-27T12:03:26;1.67;;;1.50;;
4754;SDS011;2391;47.212;7.542;2024-01-27T12:05:54;8.40;;;1.90;;
4754;SDS011;2391;47.212;7.542;2024-01-27T12:08:20;1.70;;;1.60;;
4754;SDS011;2391;47.212;7.542;2024-01-27T12:10:46;5.40;;;1.53;;
4754;SDS011;2391;47.212;7.542;2024-01-27T12:13:12;2.80;;;1.97;;
4754;SDS011;2391;47.212;7.542;2024-01-27T12:15:39;1.63;;;1.53;;
4754;SDS011;2391;47.212;7.542;2024-01-27T12:18:06;1.60;;;1.50;;
4754;SDS011;2391;47.212;7.542;2024-01-27T12:20:32;2.00;;;1.70;;
4754;SDS011;2391;47.212;7.542;2024-01-27T12:23:02;2.10;;;1.87;;
4754;SDS011;2391;47.212;7.542;2024-01-27T12:25:30;2.53;;;1.67;;
4754;SDS011;2391;47.212;7.542;2024-01-27T12:27:56;3.00;;;1.57;;
4754;SDS011;2391;47.212;7.542;2024-01-27T12:30:24;4.23;;;1.83;;
4754;SDS011;2391;47.212;7.542;2024-01-27T12:32:50;1.90;;;1.70;;
4754;SDS011;2391;47.212;7.542;2024-01-27T12:35:16;3.90;;;1.97;;
4754;SDS011;2391;47.212;7.542;2024-01-27T12:37:42;2.20;;;1.70;;
4754;SDS011;2391;47.212;7.542;2024-01-27T12:40:18;5.30;;;1.83;;
4754;SDS011;2391;47.212;7.542;2024-01-27T12:42:45;2.13;;;2.00;;
4754;SDS011;2391;47.212;7.542;2024-01-27T12:45:12;3.33;;;1.53;;
4754;SDS011;2391;47.212;7.542;2024-01-27T12:47:38;1.90;;;1.80;;
4754;SDS011;2391;47.212;7.542;2024-01-27T12:50:05;3.50;;;1.87;;
4754;SDS011;2391;47.212;7.542;2024-01-27T12:52:32;5.73;;;1.87;;
4754;SDS011;2391;47.212;7.542;2024-01-27T12:54:58;2.00;;;1.60;;
4754;SDS011;2391;47.212;7.542;2024-01-27T12:57:23;3.53;;;1.87;;
4754;SDS011;2391;47.212;7.542;2024-01-27T12:59:49;4.13;;;1.57;;
4754;SDS011;2391;47.212;7.542;2024-01-27T13:02:15;1.90;;;1.80;;
4754;SDS011;2391;47.212;7.542;2024-01-27T13:04:41;2.33;;;1.60;;
4754;SDS011;2391;47.212;7.542;2024-01-27T13:07:07;7.37;;;1.90;;
4754;SDS011;2391;47.212;7.542;2024-01-27T13:09:34;3.87;;;2.03;;
4754;SDS011;2391;47.212;7.542;2024-01-27T13:12:00;2.20;;;1.90;;
4754;SDS011;2391;47.212;7.542;2024-01-27T13:14:25;2.13;;;1.73;;
4754;SDS011;2391;47.212;7.542;2024-01-27T13:16:51;1.73;;;1.63;;
4754;SDS011;2391;47.212;7.542;2024-01-27T13:19:22;2.03;;;1.83;;
4754;SDS011;2391;47.212;7.542;2024-01-27T13:22:10;3.17;;;1.73;;
4754;SDS011;2391;47.212;7.542;2024-01-27T13:24:39;1.73;;;1.63;;
4754;SDS011;2391;47.212;7.542;2024-01-27T13:27:05;1.63;;;1.50;;
4754;SDS011;2391;47.212;7.542;2024-01-27T13:29:34;1.70;;;1.60;;
4754;SDS011;2391;47.212;7.542;2024-01-27T13:32:00;1.90;;;1.80;;
4754;SDS011;2391;47.212;7.542;2024-01-27T13:34:27;2.13;;;1.40;;
4754;SDS011;2391;47.212;7.542;2024-01-27T13:36:55;2.20;;;1.80;;
4754;SDS011;2391;47.212;7.542;2024-01-27T13:39:21;4.87;;;2.20;;
4754;SDS011;2391;47.212;7.542;2024-01-27T13:41:47;2.03;;;1.93;;
4754;SDS011;2391;47.212;7.542;2024-01-27T13:44:13;2.17;;;2.07;;
4754;SDS011;2391;47.212;7.542;2024-01-27T13:46:39;2.53;;;2.33;;
4754;SDS011;2391;47.212;7.542;2024-01-27T13:49:04;2.13;;;1.70;;
4754;SDS011;2391;47.212;7.542;2024-01-27T13:51:30;4.80;;;2.50;;
4754;SDS011;2391;47.212;7.542;2024-01-27T13:53:56;2.57;;;1.90;;
4754;SDS011;2391;47.212;7.542;2024-01-27T13:56:22;3.60;;;1.87;;
4754;SDS011;2391;47.212;7.542;2024-01-27T13:58:48;3.43;;;2.10;;
4754;SDS011;2391;47.212;7.542;2024-01-27T14:01:13;2.17;;;2.07;;
4754;SDS011;2391;47.212;7.542;2024-01-27T14:03:39;4.80;;;2.67;;
4754;SDS011;2391;47.212;7.542;2024-01-27T14:06:08;1.97;;;1.80;;
4754;SDS011;2391;47.212;7.542;2024-01-27T14:08:36;4.07;;;1.63;;
4754;SDS011;2391;47.212;7.542;2024-01-27T14:11:01;2.43;;;1.80;;
4754;SDS011;2391;47.212;7.542;2024-01-27T14:13:27;1.80;;;1.70;;
4754;SDS011;2391;47.212;7.542;2024-01-27T14:15:53;2.30;;;1.70;;
4754;SDS011;2391;47.212;7.542;2024-01-27T14:18:19;2.07;;;1.97;;
4754;SDS011;2391;47.212;7.542;2024-01-27T14:20:46;2.07;;;1.83;;
4754;SDS011;2391;47.212;7.542;2024-01-27T14:23:14;4.47;;;1.90;;
4754;SDS011;2391;47.212;7.542;2024-01-27T14:25:40;2.20;;;2.00;;
4754;SDS011;2391;47.212;7.542;2024-01-27T14:28:06;2.10;;;1.67;;
4754;SDS011;2391;47.212;7.542;2024-01-27T14:30:34;2.90;;;1.67;;
4754;SDS011;2391;47.212;7.542;2024-01-27T14:33:00;3.37;;;1.73;;
4754;SDS011;2391;47.212;7.542;2024-01-27T14:35:26;2.00;;;1.90;;
4754;SDS011;2391;47.212;7.542;2024-01-27T14:37:52;2.00;;;1.77;;
4754;SDS011;2391;47.212;7.542;2024-01-27T14:40:19;1.67;;;1.50;;
4754;SDS011;2391;47.212;7.542;2024-01-27T14:42:46;1.87;;;1.40;;
4754;SDS011;2391;47.212;7.542;2024-01-27T14:45:12;2.97;;;2.57;;
4754;SDS011;2391;47.212;7.542;2024-01-27T14:47:38;3.20;;;2.00;;
4754;SDS011;2391;47.212;7.542;2024-01-27T14:50:04;1.60;;;1.50;;
4754;SDS011;2391;47.212;7.542;2024-01-27T14:52:31;3.33;;;1.80;;
4754;SDS011;2391;47.212;7.542;2024-01-27T14:54:57;1.90;;;1.80;;
4754;SDS011;2391;47.212;7.542;2024-01-27T14:57:23;1.87;;;1.77;;
4754;SDS011;2391;47.212;7.542;2024-01-27T14:59:49;2.27;;;2.17;;
4754;SDS011;2391;47.212;7.542;2024-01-27T15:02:15;2.70;;;1.73;;
4754;SDS011;2391;47.212;7.542;2024-01-27T15:04:41;4.27;;;1.67;;
4754;SDS011;2391;47.212;7.542;2024-01-27T15:07:07;2.27;;;2.07;;
4754;SDS011;2391;47.212;7.542;2024-01-27T15:09:35;1.97;;;1.87;;